Time;durP1;ratioP1;P1;durP2;ratioP2;P2;SDS_P1;SDS_P2;PMS_P1;PMS_P2;Temp;Humidity;BMP_temperature;BMP_pressure;BME280_temperature;BME280_humidity;BME280_pressure;Samples;Min_cycle;Max_cycle;Signal;HPM_P1;HPM_P2
2023/05/28 00:01:30;;;;;;;20.50;4.90;;;11.50;91.70;;;;;;5050555;28;20100;-44
2023/05/28 00:03:57;;;;;;;14.45;6.78;;;11.50;91.60;;;;;;5032915;28;20036;-42
2023/05/28 00:06:23;;;;;;;16.13;6.28;;;11.50;91.70;;;;;;5023705;28;20080;-43
2023/05/28 00:08:49;;;;;;;16.15;5.47;;;11.50;91.60;;;;;;5012818;28;20057;-43
2023/05/28 00:11:16;;;;;;;17.80;7.35;;;11.50;91.70;;;;;;5022773;28;20026;-45
2023/05/28 00:13:42;;;;;;;12.30;5.05;;;11.60;91.60;;;;;;5047840;28;20032;-43
2023/05/28 00:16:12;;;;;;;13.90;5.57;;;11.60;91.50;;;;;;5049603;28;20029;-44
2023/05/28 00:18:42;;;;;;;13.85;4.85;;;11.60;91.60;;;;;;5048673;28;20127;-43
2023/05/28 00:21:12;;;;;;;13.50;5.00;;;11.60;91.60;;;;;;5022505;28;20100;-42
2023/05/28 00:23:40;;;;;;;17.35;5.72;;;11.60;91.70;;;;;;5018319;28;20053;-43
2023/05/28 00:26:09;;;;;;;17.20;6.57;;;11.60;91.60;;;;;;5028378;28;20128;-42
2023/05/28 00:28:35;;;;;;;20.15;6.70;;;11.60;91.60;;;;;;5028312;28;20026;-42
2023/05/28 00:31:02;;;;;;;14.00;5.00;;;11.60;91.60;;;;;;5030535;28;20083;-45
2023/05/28 00:33:27;;;;;;;11.40;5.05;;;11.60;91.50;;;;;;5051662;28;20091;-44
2023/05/28 00:35:55;;;;;;;11.75;4.50;;;11.60;91.50;;;;;;5033572;28;20022;-44
2023/05/28 00:38:22;;;;;;;16.65;4.82;;;11.60;91.50;;;;;;5033820;28;20032;-42
2023/05/28 00:40:48;;;;;;;12.20;5.60;;;11.60;91.50;;;;;;5031316;28;20029;-43
2023/05/28 00:43:19;;;;;;;15.18;5.50;;;11.60;91.40;;;;;;5012975;28;20101;-42
2023/05/28 00:45:44;;;;;;;13.52;4.95;;;11.70;91.40;;;;;;5021895;28;20071;-43
2023/05/28 00:48:11;;;;;;;12.63;4.93;;;11.70;91.40;;;;;;5019803;28;20033;-42
2023/05/28 00:50:39;;;;;;;13.85;5.72;;;11.70;91.40;;;;;;5015178;28;20072;-42
2023/05/28 00:53:07;;;;;;;19.27;6.40;;;11.70;91.30;;;;;;5013473;28;20499;-42
2023/05/28 00:55:35;;;;;;;12.75;5.03;;;11.70;91.10;;;;;;5027294;28;20071;-44
2023/05/28 00:58:07;;;;;;;11.23;5.82;;;11.70;91.10;;;;;;5032193;28;20052;-43
2023/05/28 01:00:35;;;;;;;10.63;4.70;;;11.80;91.10;;;;;;5022183;28;20025;-43
2023/05/28 01:03:04;;;;;;;14.63;4.82;;;11.80;90.90;;;;;;5030820;28;20359;-43
2023/05/28 01:05:34;;;;;;;14.63;5.35;;;11.80;90.80;;;;;;5031663;28;20081;-43
2023/05/28 01:08:06;;;;;;;10.20;4.72;;;11.80;90.70;;;;;;5026402;28;20034;-43
2023/05/28 01:10:35;;;;;;;8.95;4.50;;;11.80;90.60;;;;;;5052896;28;20049;-43
2023/05/28 01:13:05;;;;;;;10.07;4.90;;;11.90;90.50;;;;;;5047810;28;20467;-43
2023/05/28 01:15:31;;;;;;;15.50;5.43;;;11.90;90.50;;;;;;5034439;28;20034;-43
2023/05/28 01:18:00;;;;;;;15.30;6.32;;;11.90;90.50;;;;;;5036599;28;20049;-42
2023/05/28 01:20:29;;;;;;;17.67;5.32;;;11.90;90.40;;;;;;5030882;28;20032;-42
2023/05/28 01:23:03;;;;;;;11.02;4.07;;;11.90;90.30;;;;;;5031463;28;20048;-42
2023/05/28 01:25:31;;;;;;;16.38;5.25;;;11.90;90.20;;;;;;5032544;28;20033;-42
2023/05/28 01:28:02;;;;;;;10.60;5.45;;;11.90;90.30;;;;;;5020957;28;20040;-42
2023/05/28 01:30:29;;;;;;;15.80;6.13;;;11.90;90.30;;;;;;5015057;28;20025;-43
2023/05/28 01:32:56;;;;;;;14.45;5.05;;;11.90;90.40;;;;;;5031979;28;20033;-43
2023/05/28 01:35:24;;;;;;;9.57;5.35;;;11.90;90.40;;;;;;5033098;28;20029;-42
2023/05/28 01:37:53;;;;;;;12.45;5.18;;;11.90;90.40;;;;;;5031144;28;20061;-43
2023/05/28 01:40:22;;;;;;;12.18;5.75;;;11.90;90.40;;;;;;5013217;28;20026;-43
2023/05/28 01:42:51;;;;;;;11.63;6.00;;;11.90;90.40;;;;;;5013223;28;20038;-42
2023/05/28 01:45:19;;;;;;;9.77;4.80;;;11.90;90.30;;;;;;5027110;28;20029;-42
2023/05/28 01:47:45;;;;;;;13.45;5.57;;;11.90;90.30;;;;;;5051422;28;20119;-42
2023/05/28 01:50:13;;;;;;;13.80;5.40;;;11.90;90.20;;;;;;5040412;28;20030;-44
2023/05/28 01:52:40;;;;;;;13.38;5.45;;;11.90;90.20;;;;;;5052599;28;20099;-42
2023/05/28 01:55:08;;;;;;;10.65;4.97;;;11.90;90.20;;;;;;5041038;28;20459;-43
2023/05/28 01:57:35;;;;;;;9.02;4.90;;;11.90;90.00;;;;;;5018841;28;20042;-42
2023/05/28 02:00:03;;;;;;;9.45;5.22;;;11.90;90.10;;;;;;5044824;28;20032;-43
2023/05/28 02:02:30;;;;;;;14.85;5.20;;;11.90;90.00;;;;;;5042449;28;20112;-42
2023/05/28 02:04:57;;;;;;;12.23;5.47;;;11.90;90.10;;;;;;5024119;28;20034;-42
2023/05/28 02:07:24;;;;;;;14.90;5.57;;;11.90;90.10;;;;;;5035130;28;20049;-42
2023/05/28 02:09:53;;;;;;;10.05;4.18;;;11.90;90.10;;;;;;5034892;28;20021;-44
2023/05/28 02:12:22;;;;;;;10.98;4.97;;;11.90;90.00;;;;;;5035480;28;20025;-43
2023/05/28 02:14:48;;;;;;;8.90;5.28;;;11.90;89.80;;;;;;5036366;28;20100;-43
2023/05/28 02:17:20;;;;;;;10.60;4.78;;;11.90;89.60;;;;;;5034300;28;20405;-42
2023/05/28 02:19:47;;;;;;;13.95;4.82;;;11.90;89.70;;;;;;5026719;28;20036;-44
2023/05/28 02:22:14;;;;;;;11.88;5.18;;;11.90;89.60;;;;;;5034812;28;20034;-43
2023/05/28 02:24:41;;;;;;;11.75;4.53;;;11.90;89.50;;;;;;5016489;28;20030;-44
2023/05/28 02:27:09;;;;;;;14.02;5.18;;;11.90;89.30;;;;;;5016202;28;20549;-43
2023/05/28 02:29:36;;;;;;;13.00;4.85;;;11.90;89.30;;;;;;5031506;28;20033;-43
2023/05/28 02:32:03;;;;;;;9.70;5.15;;;11.90;89.10;;;;;;5041100;28;20044;-42
2023/05/28 02:34:33;;;;;;;9.95;4.50;;;11.90;89.00;;;;;;5034770;28;20179;-42
2023/05/28 02:37:01;;;;;;;;;;;11.90;89.00;;;;;;5035293;28;20025;-44
2023/05/28 02:39:27;;;;;;;13.30;4.95;;;11.90;89.00;;;;;;5024655;28;19991;-43
2023/05/28 02:41:56;;;;;;;13.20;5.32;;;11.90;89.00;;;;;;5021558;28;20025;-45
2023/05/28 02:44:23;;;;;;;9.17;5.03;;;11.90;88.90;;;;;;5036452;28;20056;-43
2023/05/28 02:46:50;;;;;;;13.55;5.05;;;11.90;88.80;;;;;;5019799;28;20030;-43
2023/05/28 02:49:17;;;;;;;15.93;5.43;;;11.90;88.90;;;;;;5031463;28;20059;-44
2023/05/28 02:51:43;;;;;;;13.18;5.80;;;11.90;88.80;;;;;;5036382;28;20037;-42
2023/05/28 02:54:12;;;;;;;13.77;5.20;;;11.90;88.70;;;;;;5035193;28;20053;-44
2023/05/28 02:56:39;;;;;;;16.15;5.47;;;11.90;88.70;;;;;;5035377;28;20529;-43
2023/05/28 02:59:04;;;;;;;14.82;5.45;;;11.90;88.70;;;;;;5023200;28;20030;-48
2023/05/28 03:01:30;;;;;;;11.73;5.00;;;11.80;88.70;;;;;;5029969;28;20029;-42
2023/05/28 03:03:57;;;;;;;12.35;5.38;;;11.80;88.90;;;;;;5039805;28;20513;-43
2023/05/28 03:06:22;;;;;;;11.05;5.35;;;11.80;89.10;;;;;;5028450;28;20061;-43
2023/05/28 03:08:48;;;;;;;12.77;5.80;;;11.80;89.20;;;;;;5030516;28;20323;-42
2023/05/28 03:11:14;;;;;;;11.88;5.60;;;11.90;89.20;;;;;;5035029;28;20083;-43
2023/05/28 03:13:41;;;;;;;17.90;5.90;;;11.80;89.20;;;;;;5033575;28;20026;-43
2023/05/28 03:16:06;;;;;;;15.85;5.35;;;11.80;89.30;;;;;;5033318;28;20443;-43
2023/05/28 03:18:35;;;;;;;11.48;5.00;;;11.80;89.30;;;;;;5016491;28;20108;-42
2023/05/28 03:21:02;;;;;;;14.50;5.47;;;11.80;89.40;;;;;;5035056;28;20029;-44
2023/05/28 03:23:29;;;;;;;13.98;5.90;;;11.80;89.40;;;;;;5017570;28;20056;-42
2023/05/28 03:25:55;;;;;;;14.35;5.80;;;11.80;89.20;;;;;;5018798;28;20068;-44
2023/05/28 03:28:24;;;;;;;16.23;4.93;;;11.80;89.20;;;;;;5042535;28;20061;-42
2023/05/28 03:30:57;;;;;;;12.63;5.53;;;11.80;89.20;;;;;;5035805;28;20108;-43
2023/05/28 03:33:23;;;;;;;13.23;5.80;;;11.90;89.30;;;;;;5027717;28;20033;-44
2023/05/28 03:35:52;;;;;;;11.77;5.63;;;11.90;89.30;;;;;;5051436;28;20025;-44
2023/05/28 03:38:19;;;;;;;10.18;5.72;;;11.90;89.20;;;;;;5021204;28;20103;-47
2023/05/28 03:40:46;;;;;;;12.70;5.50;;;11.90;89.20;;;;;;5014914;28;20034;-44
2023/05/28 03:43:13;;;;;;;14.63;6.60;;;11.90;88.90;;;;;;5014436;28;20045;-44
2023/05/28 03:45:40;;;;;;;15.27;5.45;;;11.90;88.60;;;;;;5019145;28;20022;-43
2023/05/28 03:48:07;;;;;;;9.95;5.25;;;11.90;88.50;;;;;;5051554;28;20067;-43
2023/05/28 03:50:34;;;;;;;13.93;5.93;;;11.90;88.30;;;;;;5036043;28;20064;-42
2023/05/28 03:53:05;;;;;;;8.63;4.95;;;11.90;88.20;;;;;;5030058;28;20104;-42
2023/05/28 03:55:33;;;;;;;10.27;4.68;;;11.90;88.10;;;;;;5029509;28;20451;-43
2023/05/28 03:58:00;;;;;;;11.52;4.90;;;11.90;87.70;;;;;;5042521;28;20041;-43
2023/05/28 04:00:27;;;;;;;11.45;4.72;;;11.90;87.70;;;;;;5046799;28;20034;-42
2023/05/28 04:02:53;;;;;;;13.70;5.18;;;12.00;87.70;;;;;;5014674;28;20076;-42
2023/05/28 04:05:21;;;;;;;10.50;4.63;;;12.00;87.50;;;;;;5023277;28;20030;-42
2023/05/28 04:07:47;;;;;;;9.18;4.82;;;12.00;87.40;;;;;;5036044;28;20026;-44
2023/05/28 04:10:13;;;;;;;10.82;5.13;;;12.10;87.30;;;;;;5036787;28;20013;-44
2023/05/28 04:12:42;;;;;;;6.95;4.05;;;12.10;87.00;;;;;;5035851;28;20398;-42
2023/05/28 04:15:09;;;;;;;8.00;3.72;;;12.10;86.90;;;;;;5031619;28;20026;-43
2023/05/28 04:17:36;;;;;;;10.93;5.38;;;12.20;86.70;;;;;;5050142;28;20786;-44
2023/05/28 04:20:06;;;;;;;11.02;4.90;;;12.20;86.60;;;;;;5021473;28;20029;-43
2023/05/28 04:22:33;;;;;;;9.77;4.35;;;12.20;86.20;;;;;;5041707;28;20113;-43
2023/05/28 04:25:01;;;;;;;10.82;4.20;;;12.30;85.90;;;;;;5040840;28;20125;-43
2023/05/28 04:27:28;;;;;;;13.50;4.63;;;12.20;85.30;;;;;;5032988;28;20586;-42
2023/05/28 04:29:56;;;;;;;8.15;4.30;;;12.30;84.60;;;;;;5045577;28;20052;-42
2023/05/28 04:32:24;;;;;;;10.65;4.03;;;12.30;84.70;;;;;;5044958;28;20025;-43
2023/05/28 04:34:54;;;;;;;9.57;3.78;;;12.30;84.30;;;;;;5016194;28;20436;-42
2023/05/28 04:37:21;;;;;;;11.73;4.10;;;12.40;84.10;;;;;;5013495;28;20447;-43
2023/05/28 04:39:48;;;;;;;12.07;4.53;;;12.30;83.80;;;;;;5017985;28;20026;-43
2023/05/28 04:42:17;;;;;;;8.75;4.57;;;12.40;83.50;;;;;;5032892;28;20083;-43
2023/05/28 04:44:44;;;;;;;10.73;4.30;;;12.40;83.40;;;;;;5029457;28;20029;-45
2023/05/28 04:47:13;;;;;;;10.85;5.45;;;12.40;84.00;;;;;;5021623;28;20025;-42
2023/05/28 04:49:43;;;;;;;8.18;4.53;;;12.40;84.70;;;;;;5013668;28;20017;-43
2023/05/28 04:52:08;;;;;;;13.50;4.95;;;12.50;85.10;;;;;;5017487;28;20471;-43
2023/05/28 04:54:35;;;;;;;13.95;5.22;;;12.60;85.30;;;;;;5013526;28;20030;-44
2023/05/28 04:57:04;;;;;;;13.30;5.40;;;12.60;85.20;;;;;;5027180;28;20395;-43
2023/05/28 04:59:31;;;;;;;14.05;5.07;;;12.60;85.60;;;;;;5033691;28;20410;-44
2023/05/28 05:01:58;;;;;;;12.23;5.15;;;12.70;86.30;;;;;;5027991;28;20029;-43
2023/05/28 05:04:24;;;;;;;11.45;5.18;;;12.70;86.70;;;;;;5045519;28;20022;-43
2023/05/28 05:06:51;;;;;;;11.00;4.78;;;12.60;86.40;;;;;;5044672;28;20067;-43
2023/05/28 05:09:19;;;;;;;12.30;5.25;;;12.60;86.00;;;;;;5026723;28;20459;-42
2023/05/28 05:11:50;;;;;;;11.13;4.18;;;12.60;85.50;;;;;;5027254;28;20026;-43
2023/05/28 05:14:19;;;;;;;8.18;4.85;;;12.40;84.50;;;;;;5030825;28;20743;-43
2023/05/28 05:16:46;;;;;;;12.38;4.95;;;12.40;84.50;;;;;;5034694;28;20032;-44
2023/05/28 05:19:13;;;;;;;11.20;5.70;;;12.40;85.00;;;;;;5035477;28;20021;-44
2023/05/28 05:21:40;;;;;;;9.95;5.25;;;12.50;85.60;;;;;;5032200;28;20362;-44
2023/05/28 05:24:06;;;;;;;11.48;4.72;;;12.50;86.10;;;;;;5027469;28;20447;-46
2023/05/28 05:26:33;;;;;;;9.35;5.57;;;12.70;86.20;;;;;;5031524;28;20040;-44
2023/05/28 05:29:00;;;;;;;12.43;5.80;;;12.80;86.50;;;;;;5031895;28;20033;-44
2023/05/28 05:31:29;;;;;;;11.75;5.03;;;12.90;86.30;;;;;;5029817;28;20121;-44
2023/05/28 05:33:56;;;;;;;15.17;5.90;;;12.90;85.80;;;;;;5015194;28;20030;-46
2023/05/28 05:36:23;;;;;;;15.48;5.35;;;13.00;85.40;;;;;;5030375;28;20068;-44
2023/05/28 05:38:52;;;;;;;11.45;5.45;;;13.10;85.20;;;;;;5030963;28;20029;-44
2023/05/28 05:41:19;;;;;;;11.18;5.45;;;13.10;84.60;;;;;;5036758;28;20045;-45
2023/05/28 05:43:46;;;;;;;12.38;4.68;;;13.20;84.60;;;;;;5025296;28;20116;-44
2023/05/28 05:46:13;;;;;;;14.38;5.05;;;13.30;83.50;;;;;;5035629;28;20116;-45
2023/05/28 05:48:41;;;;;;;11.02;5.18;;;13.30;82.70;;;;;;5034579;28;20063;-45
2023/05/28 05:51:08;;;;;;;10.55;4.10;;;13.40;81.50;;;;;;5035652;28;20124;-44
2023/05/28 05:53:41;;;;;;;12.48;4.30;;;13.60;80.30;;;;;;5035801;28;20427;-44
2023/05/28 05:56:08;;;;;;;7.70;4.43;;;13.70;79.30;;;;;;5035344;28;20100;-45
2023/05/28 05:58:35;;;;;;;11.48;4.07;;;13.90;79.00;;;;;;5033238;28;20033;-47
2023/05/28 06:01:03;;;;;;;11.85;5.03;;;13.90;77.00;;;;;;5035199;28;20049;-47
2023/05/28 06:03:28;;;;;;;9.93;4.43;;;14.10;76.70;;;;;;5035336;28;20099;-46
2023/05/28 06:05:55;;;;;;;9.40;4.18;;;14.00;75.50;;;;;;5034099;28;20463;-44
2023/05/28 06:08:23;;;;;;;12.57;4.70;;;14.10;76.50;;;;;;5035407;28;20037;-47
2023/05/28 06:10:51;;;;;;;11.85;5.15;;;14.20;77.10;;;;;;5027140;28;20025;-45
2023/05/28 06:13:18;;;;;;;10.60;4.30;;;14.20;78.00;;;;;;5036041;28;20408;-45
2023/05/28 06:15:44;;;;;;;11.57;4.32;;;14.20;78.80;;;;;;5034900;28;20026;-45
2023/05/28 06:18:11;;;;;;;10.88;4.43;;;14.10;79.00;;;;;;5032061;28;20079;-46
2023/05/28 06:20:39;;;;;;;12.43;5.53;;;14.10;78.80;;;;;;5031934;28;20132;-45
2023/05/28 06:23:05;;;;;;;10.35;6.07;;;14.10;79.10;;;;;;5035928;28;20032;-46
2023/05/28 06:25:32;;;;;;;9.00;5.10;;;14.20;79.60;;;;;;5030216;28;20120;-48
2023/05/28 06:27:57;;;;;;;7.80;4.63;;;14.20;77.80;;;;;;5039938;28;20103;-46
2023/05/28 06:30:24;;;;;;;8.73;4.18;;;14.20;76.60;;;;;;5031485;28;20030;-45
2023/05/28 06:32:51;;;;;;;16.70;5.35;;;14.20;78.30;;;;;;5030148;28;20072;-48
2023/05/28 06:35:21;;;;;;;10.13;5.38;;;14.20;77.60;;;;;;5031063;28;20029;-45
2023/05/28 06:37:46;;;;;;;;;;;14.30;77.50;;;;;;5033020;28;20033;-47
2023/05/28 06:40:15;;;;;;;9.07;4.53;;;14.30;75.80;;;;;;5031998;28;19991;-46
2023/05/28 06:42:41;;;;;;;12.07;4.33;;;14.30;73.40;;;;;;5038416;28;20439;-47
2023/05/28 06:45:08;;;;;;;8.90;4.28;;;14.40;72.60;;;;;;5031789;28;20307;-45
2023/05/28 06:47:37;;;;;;;9.07;4.22;;;14.40;72.60;;;;;;5035276;28;20033;-45
2023/05/28 06:50:04;;;;;;;11.80;4.70;;;14.40;73.30;;;;;;5033972;28;20053;-44
2023/05/28 06:52:33;;;;;;;11.30;4.72;;;14.50;73.90;;;;;;5030823;28;20290;-46
2023/05/28 06:54:59;;;;;;;8.13;4.03;;;14.60;74.20;;;;;;5029031;28;20687;-45
2023/05/28 06:57:25;;;;;;;12.30;5.43;;;14.60;74.90;;;;;;5032899;28;20075;-47
2023/05/28 06:59:52;;;;;;;12.45;5.20;;;14.50;73.80;;;;;;5032586;28;20113;-50
2023/05/28 07:02:19;;;;;;;8.57;4.60;;;14.60;75.00;;;;;;5020596;28;20038;-48
2023/05/28 07:04:45;;;;;;;13.35;5.65;;;14.70;75.30;;;;;;5032725;28;20033;-47
2023/05/28 07:07:11;;;;;;;13.18;5.72;;;14.70;75.10;;;;;;5033343;28;20052;-46
2023/05/28 07:09:37;;;;;;;11.65;4.82;;;14.80;75.50;;;;;;5035259;28;20022;-47
2023/05/28 07:12:04;;;;;;;10.68;4.78;;;14.90;76.90;;;;;;5032114;28;20022;-50
2023/05/28 07:14:31;;;;;;;10.70;5.03;;;14.90;74.90;;;;;;5032407;28;20055;-48
2023/05/28 07:16:58;;;;;;;14.48;5.03;;;14.90;76.10;;;;;;5033490;28;20021;-46
2023/05/28 07:19:25;;;;;;;10.48;4.88;;;15.00;76.90;;;;;;5034384;28;20039;-46
2023/05/28 07:21:55;;;;;;;12.00;4.75;;;15.10;76.80;;;;;;5047079;28;20084;-47
2023/05/28 07:24:22;;;;;;;;;;;15.40;75.80;;;;;;5015210;28;20018;-47
2023/05/28 07:26:48;;;;;;;9.65;4.95;;;15.70;74.70;;;;;;5029266;28;19952;-46
2023/05/28 07:29:18;;;;;;;10.25;4.90;;;16.20;73.40;;;;;;5037235;28;20087;-47
2023/05/28 07:31:45;;;;;;;10.00;5.25;;;16.60;70.80;;;;;;5029019;28;20514;-47
2023/05/28 07:34:12;;;;;;;13.55;4.88;;;17.00;68.80;;;;;;5030546;28;20057;-46
2023/05/28 07:36:39;;;;;;;7.90;5.38;;;17.10;70.30;;;;;;5032159;28;20079;-47
2023/05/28 07:39:06;;;;;;;8.63;4.60;;;17.70;64.00;;;;;;5028755;28;20032;-48
2023/05/28 07:41:34;;;;;;;12.63;6.07;;;17.80;64.20;;;;;;5031448;28;20103;-46
2023/05/28 07:44:02;;;;;;;10.05;5.13;;;18.10;62.60;;;;;;5031156;28;20033;-51
2023/05/28 07:46:29;;;;;;;7.75;4.63;;;18.50;62.50;;;;;;5026520;28;20041;-48
2023/05/28 07:48:58;;;;;;;8.80;5.07;;;18.30;59.90;;;;;;5034032;28;20044;-45
2023/05/28 07:51:28;;;;;;;7.53;4.75;;;18.80;57.30;;;;;;5033883;28;20034;-46
2023/05/28 07:53:55;;;;;;;9.35;4.82;;;19.10;58.30;;;;;;5033315;28;20131;-45
2023/05/28 07:56:22;;;;;;;7.35;4.43;;;19.40;58.10;;;;;;5031368;28;20025;-45
2023/05/28 07:58:52;;;;;;;10.68;5.38;;;19.70;57.30;;;;;;5032167;28;20477;-45
2023/05/28 08:01:21;;;;;;;9.93;5.00;;;20.10;55.80;;;;;;5032280;28;20037;-47
2023/05/28 08:03:53;;;;;;;11.88;5.57;;;20.40;54.60;;;;;;5032451;28;20375;-46
2023/05/28 08:06:21;;;;;;;9.35;5.57;;;20.40;52.60;;;;;;5036742;28;20049;-46
2023/05/28 08:08:48;;;;;;;6.78;4.20;;;20.20;52.70;;;;;;5039667;28;20525;-47
2023/05/28 08:11:15;;;;;;;7.85;5.03;;;19.90;53.90;;;;;;5022586;28;20028;-46
2023/05/28 08:13:46;;;;;;;8.82;4.90;;;20.50;55.10;;;;;;5024586;28;20049;-49
2023/05/28 08:16:13;;;;;;;7.68;4.70;;;20.40;53.30;;;;;;5023871;28;20072;-46
2023/05/28 08:18:40;;;;;;;6.72;3.15;;;20.60;54.50;;;;;;5039130;28;20100;-48
2023/05/28 08:21:07;;;;;;;10.90;4.50;;;20.70;52.70;;;;;;5029747;28;20033;-46
2023/05/28 08:23:34;;;;;;;7.95;3.67;;;20.50;55.30;;;;;;5025711;28;20032;-51
2023/05/28 08:26:07;;;;;;;6.15;3.60;;;20.80;52.30;;;;;;5026702;28;20124;-47
2023/05/28 08:28:33;;;;;;;7.32;4.43;;;20.90;51.70;;;;;;5030151;28;20350;-46
2023/05/28 08:31:00;;;;;;;7.10;4.72;;;21.10;52.90;;;;;;5036135;28;20443;-48
2023/05/28 08:33:27;;;;;;;7.97;3.65;;;21.20;49.60;;;;;;5045637;28;20104;-46
2023/05/28 08:35:57;;;;;;;9.07;4.53;;;20.90;51.40;;;;;;5031420;28;20029;-47
2023/05/28 08:38:23;;;;;;;6.22;3.47;;;20.90;52.70;;;;;;5036346;28;20418;-46
2023/05/28 08:40:54;;;;;;;6.70;2.80;;;20.90;52.30;;;;;;5046184;28;20112;-47
2023/05/28 08:43:22;;;;;;;7.50;4.40;;;21.20;53.50;;;;;;5032062;28;20100;-49
2023/05/28 08:45:50;;;;;;;7.50;3.60;;;21.40;50.60;;;;;;5032407;28;20025;-46
2023/05/28 08:48:18;;;;;;;7.43;4.10;;;21.40;50.50;;;;;;5030464;28;20059;-49
2023/05/28 08:50:48;;;;;;;8.00;3.60;;;21.40;54.30;;;;;;5030340;28;20030;-47
2023/05/28 08:53:18;;;;;;;10.05;4.18;;;21.40;56.90;;;;;;5031068;28;20451;-47
2023/05/28 08:55:46;;;;;;;7.10;3.65;;;21.00;55.00;;;;;;5016719;28;20564;-48
2023/05/28 08:58:13;;;;;;;13.80;5.38;;;21.40;54.80;;;;;;5028476;28;20042;-50
2023/05/28 09:00:43;;;;;;;11.88;3.75;;;21.30;55.30;;;;;;5044411;28;20037;-46
2023/05/28 09:03:09;;;;;;;10.40;4.53;;;21.20;54.50;;;;;;5029726;28;20037;-49
2023/05/28 09:05:39;;;;;;;8.00;4.20;;;20.90;56.60;;;;;;5034780;28;20377;-49
2023/05/28 09:08:09;;;;;;;8.18;4.30;;;20.80;54.40;;;;;;5048544;28;20462;-47
2023/05/28 09:10:38;;;;;;;10.52;4.03;;;20.90;58.60;;;;;;5038710;28;20030;-48
2023/05/28 09:13:08;;;;;;;7.60;4.13;;;20.90;57.10;;;;;;5026773;28;20037;-49
2023/05/28 09:15:36;;;;;;;10.15;3.28;;;20.80;58.80;;;;;;5024776;28;20025;-48
2023/05/28 09:18:04;;;;;;;9.93;4.20;;;20.70;55.40;;;;;;5029020;28;20363;-47
2023/05/28 09:20:32;;;;;;;10.02;3.85;;;20.50;55.80;;;;;;5023109;28;20035;-52
2023/05/28 09:23:00;;;;;;;10.20;3.53;;;20.40;58.10;;;;;;5015063;28;20030;-49
2023/05/28 09:25:28;;;;;;;9.15;3.75;;;20.30;58.40;;;;;;5013277;28;20034;-47
2023/05/28 09:27:58;;;;;;;7.10;3.75;;;20.30;59.40;;;;;;5028787;28;20128;-47
2023/05/28 09:30:25;;;;;;;8.45;4.10;;;20.20;58.40;;;;;;5030359;28;20030;-47
2023/05/28 09:33:02;;;;;;;11.60;4.68;;;20.40;58.90;;;;;;5032538;28;20649;-47
2023/05/28 09:35:32;;;;;;;8.23;4.35;;;20.50;58.20;;;;;;5032940;28;20033;-48
2023/05/28 09:38:13;;;;;;;7.88;3.35;;;20.40;59.80;;;;;;5047219;28;20040;-48
2023/05/28 09:40:48;;;;;;;8.18;4.47;;;20.20;57.90;;;;;;5025070;28;20157;-49
2023/05/28 09:43:15;;;;;;;8.80;4.05;;;20.30;57.90;;;;;;5049203;28;20441;-49
2023/05/28 09:45:41;;;;;;;10.35;3.60;;;20.40;55.60;;;;;;5050277;28;20021;-46
2023/05/28 09:48:08;;;;;;;8.18;4.50;;;20.30;57.20;;;;;;5030031;28;20056;-49
2023/05/28 09:50:36;;;;;;;7.28;3.80;;;20.30;54.40;;;;;;5047335;28;20025;-52
2023/05/28 09:53:07;;;;;;;12.93;4.05;;;20.20;60.80;;;;;;5050948;28;20021;-47
2023/05/28 09:55:35;;;;;;;7.43;3.78;;;20.50;61.10;;;;;;5034804;28;20124;-50
2023/05/28 09:58:10;;;;;;;6.45;2.88;;;20.40;55.20;;;;;;5030820;28;20033;-47
2023/05/28 10:00:47;;;;;;;8.52;3.42;;;20.40;55.50;;;;;;5018423;28;20033;-47
2023/05/28 10:03:24;;;;;;;7.78;2.88;;;20.20;58.20;;;;;;5039621;28;20029;-48
2023/05/28 10:05:56;;;;;;;8.05;3.40;;;20.10;58.80;;;;;;5024585;28;20052;-50
2023/05/28 10:08:24;;;;;;;9.73;4.65;;;20.10;56.80;;;;;;5024659;28;20040;-47
2023/05/28 10:10:53;;;;;;;8.23;3.57;;;20.30;54.70;;;;;;5034288;28;20049;-48
2023/05/28 10:13:20;;;;;;;8.60;3.72;;;20.40;52.10;;;;;;5030444;28;20072;-51
2023/05/28 10:15:48;;;;;;;7.63;4.10;;;20.40;52.20;;;;;;5020804;28;20028;-48
2023/05/28 10:18:16;;;;;;;8.60;3.95;;;20.20;50.30;;;;;;5033125;28;20100;-47
2023/05/28 10:20:42;;;;;;;8.75;3.78;;;20.10;56.30;;;;;;5048815;28;20033;-47
2023/05/28 10:23:10;;;;;;;10.38;3.25;;;20.00;54.70;;;;;;5045754;28;20029;-49
2023/05/28 10:25:37;;;;;;;7.53;3.65;;;19.90;56.00;;;;;;5034140;28;20037;-47
2023/05/28 10:28:05;;;;;;;9.90;4.22;;;20.10;57.10;;;;;;5041107;28;20033;-48
2023/05/28 10:30:37;;;;;;;11.70;5.15;;;19.90;54.80;;;;;;5049444;28;20439;-47
2023/05/28 10:33:18;;;;;;;9.75;3.80;;;19.90;59.90;;;;;;5040732;28;20032;-47
2023/05/28 10:35:56;;;;;;;7.35;3.53;;;19.90;56.60;;;;;;5040589;28;20103;-47
2023/05/28 10:38:23;;;;;;;9.98;3.65;;;19.70;57.00;;;;;;5050905;28;20037;-47
2023/05/28 10:40:51;;;;;;;10.45;3.50;;;19.80;57.00;;;;;;5025142;28;20033;-47
2023/05/28 10:43:54;;;;;;;8.50;3.70;;;19.70;57.70;;;;;;5032923;28;20442;-47
2023/05/28 10:46:38;;;;;;;8.93;3.72;;;19.80;62.30;;;;;;5034651;28;20033;-47
2023/05/28 10:49:23;;;;;;;12.70;3.80;;;19.90;61.90;;;;;;5033079;28;20026;-47
2023/05/28 10:52:00;;;;;;;9.00;3.95;;;19.70;61.30;;;;;;5046138;28;20080;-47
2023/05/28 10:54:45;;;;;;;9.38;3.45;;;19.80;60.70;;;;;;5043891;28;20022;-50
2023/05/28 10:57:17;;;;;;;7.20;4.05;;;19.40;62.60;;;;;;5030658;28;20395;-47
2023/05/28 11:00:08;;;;;;;10.10;3.63;;;19.50;62.80;;;;;;5049776;28;20543;-49
2023/05/28 11:02:34;;;;;;;10.25;4.05;;;19.40;62.70;;;;;;5037364;28;20112;-47
2023/05/28 11:05:04;;;;;;;11.32;4.10;;;19.10;62.90;;;;;;5036883;28;20049;-47
2023/05/28 11:07:35;;;;;;;11.35;4.15;;;18.90;64.90;;;;;;5052809;28;20049;-53
2023/05/28 11:10:05;;;;;;;11.57;4.05;;;18.90;64.50;;;;;;5029496;28;20108;-48
2023/05/28 11:12:34;;;;;;;9.68;3.67;;;18.90;63.80;;;;;;5037129;28;20025;-47
2023/05/28 11:15:01;;;;;;;11.53;3.67;;;19.00;65.20;;;;;;5046986;28;20026;-51
2023/05/28 11:17:28;;;;;;;8.93;3.88;;;19.00;63.90;;;;;;5050795;28;20068;-47
2023/05/28 11:19:55;;;;;;;9.25;4.10;;;19.00;65.80;;;;;;5036003;28;20033;-51
2023/05/28 11:22:22;;;;;;;10.50;3.95;;;19.20;65.40;;;;;;5042285;28;20496;-46
2023/05/28 11:25:07;;;;;;;11.45;4.38;;;19.40;65.40;;;;;;5038431;28;20021;-49
2023/05/28 11:27:37;;;;;;;10.43;4.35;;;19.20;64.40;;;;;;5050889;28;20032;-46
2023/05/28 11:30:21;;;;;;;8.93;3.95;;;19.00;64.20;;;;;;5019165;28;20022;-53
2023/05/28 11:32:48;;;;;;;12.20;4.40;;;18.90;64.70;;;;;;5018212;28;20037;-49
2023/05/28 11:35:18;;;;;;;12.35;4.75;;;19.00;68.20;;;;;;5034500;28;20028;-48
2023/05/28 11:37:45;;;;;;;18.33;5.03;;;18.90;64.80;;;;;;5032680;28;20403;-47
2023/05/28 11:40:14;;;;;;;12.63;4.75;;;18.80;66.60;;;;;;5039525;28;20025;-48
2023/05/28 11:42:42;;;;;;;14.10;4.63;;;18.70;68.30;;;;;;5052260;28;20389;-48
2023/05/28 11:45:11;;;;;;;10.00;4.13;;;18.50;68.30;;;;;;5034396;28;20627;-52
2023/05/28 11:47:39;;;;;;;15.52;3.88;;;18.60;68.10;;;;;;5046515;28;20090;-48
2023/05/28 11:50:13;;;;;;;12.63;5.00;;;18.40;68.40;;;;;;5052295;28;20063;-51
2023/05/28 11:52:40;;;;;;;18.35;4.93;;;18.50;68.70;;;;;;5040576;28;20040;-48
2023/05/28 11:55:09;;;;;;;19.05;5.97;;;18.40;69.70;;;;;;5047704;28;20026;-48
2023/05/28 11:57:39;;;;;;;14.50;4.32;;;18.30;68.90;;;;;;5034943;28;20025;-46
2023/05/28 12:00:15;;;;;;;17.35;5.50;;;18.30;68.90;;;;;;5033509;28;20029;-46
2023/05/28 12:02:45;;;;;;;17.42;5.57;;;18.30;70.20;;;;;;5031848;28;20026;-46
2023/05/28 12:05:12;;;;;;;8.68;4.32;;;18.50;70.60;;;;;;5034079;28;20032;-47
2023/05/28 12:07:53;;;;;;;15.40;5.57;;;18.40;68.80;;;;;;5039987;28;20430;-48
2023/05/28 12:10:22;;;;;;;18.77;6.95;;;18.30;69.40;;;;;;5034631;28;20034;-48
2023/05/28 12:12:48;;;;;;;12.10;4.30;;;18.10;70.10;;;;;;5052402;28;20100;-50
2023/05/28 12:15:18;;;;;;;14.15;5.05;;;18.30;71.40;;;;;;5038638;28;20528;-46
2023/05/28 12:17:47;;;;;;;13.68;4.68;;;18.30;71.30;;;;;;5032712;28;20029;-46
2023/05/28 12:20:16;;;;;;;12.35;5.32;;;18.40;70.20;;;;;;5032990;28;20036;-46
2023/05/28 12:22:43;;;;;;;15.20;4.85;;;18.40;71.40;;;;;;5031956;28;20048;-46
2023/05/28 12:25:10;;;;;;;14.20;4.20;;;18.40;70.60;;;;;;5033152;28;20040;-47
2023/05/28 12:27:40;;;;;;;11.80;4.30;;;18.30;69.90;;;;;;5034753;28;20191;-46
2023/05/28 12:30:10;;;;;;;11.57;4.60;;;18.30;71.30;;;;;;5030796;28;20394;-49
2023/05/28 12:32:37;;;;;;;11.07;4.72;;;18.30;68.40;;;;;;5031419;28;20348;-48
2023/05/28 12:35:07;;;;;;;13.70;5.68;;;18.10;67.90;;;;;;5035757;28;20095;-46
2023/05/28 12:37:34;;;;;;;13.52;5.07;;;18.10;71.00;;;;;;5026471;28;20029;-46
2023/05/28 12:40:01;;;;;;;9.98;4.97;;;18.00;72.10;;;;;;5032496;28;20087;-48
2023/05/28 12:42:28;;;;;;;13.00;5.47;;;18.10;71.60;;;;;;5029509;28;20103;-46
2023/05/28 12:44:54;;;;;;;14.98;4.70;;;18.20;69.40;;;;;;5029287;28;20029;-47
2023/05/28 12:47:21;;;;;;;9.32;4.03;;;18.10;70.50;;;;;;5032487;28;20444;-46